createdAt,value
2022-10-23T00:01:43.746Z,99723.00
2022-10-23T00:04:16.538Z,99724.00
2022-10-23T00:06:45.444Z,99721.00
2022-10-23T00:09:17.540Z,99723.00
2022-10-23T00:11:47.677Z,99721.00
2022-10-23T00:14:17.802Z,99720.00
2022-10-23T00:16:47.947Z,99681.00
2022-10-23T00:19:15.996Z,99727.00
2022-10-23T00:21:44.156Z,99725.00
2022-10-23T00:24:12.239Z,99721.00
2022-10-23T00:26:40.643Z,99727.00
2022-10-23T00:29:10.581Z,99721.00
2022-10-23T00:31:39.470Z,99713.00
2022-10-23T00:34:09.199Z,99718.00
2022-10-23T00:36:37.830Z,99712.00
2022-10-23T00:39:06.992Z,99712.00
2022-10-23T00:41:35.495Z,99705.00
2022-10-23T00:44:09.339Z,99701.00
2022-10-23T00:46:40.093Z,99701.00
2022-10-23T00:51:48.944Z,99714.00
2022-10-23T00:54:24.692Z,99710.00
2022-10-23T00:56:57.216Z,99708.00
2022-10-23T00:59:26.195Z,99706.00
2022-10-23T01:01:54.667Z,99716.00
2022-10-23T01:04:25.718Z,99714.00
2022-10-23T01:07:04.116Z,99707.00
2022-10-23T01:09:40.221Z,99711.00
2022-10-23T01:12:18.643Z,99705.00
2022-10-23T01:15:05.091Z,99714.00
2022-10-23T01:17:44.484Z,99711.00
2022-10-23T01:20:33.147Z,99721.00
2022-10-23T01:23:37.075Z,99704.00
2022-10-23T01:26:26.972Z,99729.00
2022-10-23T01:29:04.732Z,99711.00
2022-10-23T01:31:41.190Z,99709.00
2022-10-23T01:34:15.447Z,99715.00
2022-10-23T01:36:51.708Z,99704.00
2022-10-23T01:39:28.293Z,99706.00
2022-10-23T01:42:02.900Z,99710.00
2022-10-23T01:44:42.655Z,99710.00
2022-10-23T01:47:14.231Z,99711.00
2022-10-23T01:49:57.755Z,99709.00
2022-10-23T01:52:26.422Z,99661.00
2022-10-23T01:55:01.293Z,99699.00
2022-10-23T01:57:36.323Z,99704.00
2022-10-23T02:00:11.157Z,99689.00
2022-10-23T02:03:03.193Z,99698.00
2022-10-23T02:05:34.593Z,99691.00
2022-10-23T02:08:04.766Z,99697.00
2022-10-23T02:10:42.641Z,99697.00
2022-10-23T02:13:19.951Z,99679.00
2022-10-23T02:15:52.900Z,99675.00
2022-10-23T02:18:37.100Z,99691.00
2022-10-23T02:21:12.111Z,99685.00
2022-10-23T02:23:50.387Z,99693.00
2022-10-23T02:26:27.350Z,99684.00
2022-10-23T02:29:02.755Z,99691.00
2022-10-23T02:31:33.837Z,99682.00
2022-10-23T02:34:02.060Z,99673.00
2022-10-23T02:36:30.539Z,99688.00
2022-10-23T02:38:59.052Z,99678.00
2022-10-23T02:41:40.016Z,99684.00
2022-10-23T02:44:29.565Z,99670.00
2022-10-23T02:47:13.373Z,99678.00
2022-10-23T02:49:52.945Z,99668.00
2022-10-23T02:52:29.379Z,99676.00
2022-10-23T02:55:15.122Z,99655.00
2022-10-23T02:57:57.809Z,99687.00
2022-10-23T03:00:30.231Z,99675.00
2022-10-23T03:03:06.982Z,99681.00
2022-10-23T03:05:40.042Z,99671.00
2022-10-23T03:08:12.250Z,99668.00
2022-10-23T03:10:40.993Z,99675.00
2022-10-23T03:13:10.462Z,99670.00
2022-10-23T03:15:45.408Z,99659.00
2022-10-23T03:18:16.983Z,99676.00
2022-10-23T03:20:51.452Z,99672.00
2022-10-23T03:23:23.067Z,99651.00
2022-10-23T03:25:51.394Z,99666.00
2022-10-23T03:28:33.005Z,99658.00
2022-10-23T03:31:02.143Z,99668.00
2022-10-23T03:33:32.005Z,99670.00
2022-10-23T03:36:09.344Z,99661.00
2022-10-23T03:38:37.522Z,99660.00
2022-10-23T03:41:07.093Z,99662.00
2022-10-23T03:43:35.186Z,99662.00
2022-10-23T03:46:08.970Z,99666.00
2022-10-23T03:48:39.100Z,99673.00
2022-10-23T03:51:07.722Z,99675.00
2022-10-23T03:53:36.117Z,99680.00
2022-10-23T03:56:06.207Z,99672.00
2022-10-23T03:58:35.063Z,99674.00
2022-10-23T04:01:03.325Z,99673.00
2022-10-23T04:03:31.447Z,99673.00
2022-10-23T04:06:00.851Z,99669.00
2022-10-23T04:08:29.122Z,99668.00
2022-10-23T04:10:57.425Z,99621.00
2022-10-23T04:13:33.866Z,99656.00
2022-10-23T04:16:02.222Z,99612.00
2022-10-23T04:18:30.339Z,99643.00
2022-10-23T04:20:59.791Z,99647.00
2022-10-23T04:23:27.864Z,99649.00
2022-10-23T04:25:58.412Z,99648.00
2022-10-23T04:28:28.287Z,99653.00
2022-10-23T04:30:56.747Z,99659.00
2022-10-23T04:33:25.048Z,99658.00
2022-10-23T04:35:53.827Z,99666.00
2022-10-23T04:38:23.314Z,99661.00
2022-10-23T04:40:51.742Z,99660.00
2022-10-23T04:43:23.867Z,99662.00
2022-10-23T04:45:52.169Z,99658.00
2022-10-23T04:48:25.512Z,99664.00
2022-10-23T04:51:15.008Z,99677.00
2022-10-23T04:53:55.927Z,99671.00
2022-10-23T04:56:42.643Z,99666.00
2022-10-23T04:59:17.204Z,99664.00
2022-10-23T05:01:46.333Z,99651.00
2022-10-23T05:04:15.355Z,99622.00
2022-10-23T05:07:18.496Z,99654.00
2022-10-23T05:09:55.857Z,99653.00
2022-10-23T05:12:40.735Z,99650.00
2022-10-23T05:15:09.695Z,99653.00
2022-10-23T05:17:42.623Z,99647.00
2022-10-23T05:20:18.263Z,99645.00
2022-10-23T05:22:51.111Z,99647.00
2022-10-23T05:25:23.288Z,99653.00
2022-10-23T05:27:58.617Z,99650.00
2022-10-23T05:30:27.374Z,99645.00
2022-10-23T05:32:56.100Z,99637.00
2022-10-23T05:35:27.595Z,99634.00
2022-10-23T05:38:01.187Z,99641.00
2022-10-23T05:40:30.810Z,99638.00
2022-10-23T05:43:10.052Z,99632.00
2022-10-23T05:45:58.593Z,99630.00
2022-10-23T05:48:46.120Z,99634.00
2022-10-23T05:51:52.597Z,99643.00
2022-10-23T05:54:20.649Z,99641.00
2022-10-23T05:57:09.193Z,99636.00
2022-10-23T05:59:45.912Z,99645.00
2022-10-23T06:02:41.646Z,99645.00
2022-10-23T06:05:26.485Z,99634.00
2022-10-23T06:08:20.934Z,99641.00
2022-10-23T06:10:51.368Z,99639.00
2022-10-23T06:13:21.423Z,99643.00
2022-10-23T06:15:49.742Z,99634.00
2022-10-23T06:18:23.327Z,99644.00
2022-10-23T06:21:02.647Z,99639.00
2022-10-23T06:23:32.999Z,99632.00
2022-10-23T06:26:20.777Z,99639.00
2022-10-23T06:28:58.898Z,99638.00
2022-10-23T06:31:28.367Z,99645.00
2022-10-23T06:34:00.543Z,99643.00
2022-10-23T06:36:30.886Z,99643.00
2022-10-23T06:39:08.302Z,99647.00
2022-10-23T06:41:54.998Z,99645.00
2022-10-23T06:45:04.723Z,99639.00
2022-10-23T06:47:54.405Z,99640.00
2022-10-23T06:50:41.839Z,99650.00
2022-10-23T06:53:16.467Z,99647.00
2022-10-23T06:55:53.048Z,99647.00
2022-10-23T06:58:23.591Z,99645.00
2022-10-23T07:01:04.629Z,99618.00
2022-10-23T07:03:34.343Z,99646.00
2022-10-23T07:06:06.713Z,99643.00
2022-10-23T07:08:35.293Z,99650.00
2022-10-23T07:11:10.395Z,99632.00
2022-10-23T07:13:40.498Z,99649.00
2022-10-23T07:16:22.996Z,99649.00
2022-10-23T07:18:58.722Z,99648.00
2022-10-23T07:21:31.815Z,99656.00
2022-10-23T07:24:26.190Z,99636.00
2022-10-23T07:26:55.912Z,99652.00
2022-10-23T07:29:25.742Z,99648.00
2022-10-23T07:31:55.212Z,99647.00
2022-10-23T07:34:46.349Z,99643.00
2022-10-23T07:37:26.188Z,99640.00
2022-10-23T07:39:54.248Z,99631.00
2022-10-23T07:42:22.370Z,99634.00
2022-10-23T07:44:51.633Z,99641.00
2022-10-23T07:47:21.123Z,99645.00
2022-10-23T07:49:52.014Z,99648.00
2022-10-23T07:52:22.028Z,99650.00
2022-10-23T07:55:13.193Z,99650.00
2022-10-23T07:57:54.463Z,99650.00
2022-10-23T08:00:32.759Z,99635.00
2022-10-23T08:03:13.367Z,99619.00
2022-10-23T08:05:42.039Z,99643.00
2022-10-23T08:08:10.766Z,99641.00
2022-10-23T08:10:41.827Z,99638.00
2022-10-23T08:13:14.307Z,99640.00
2022-10-23T08:16:00.455Z,99638.00
2022-10-23T08:18:55.558Z,99635.00
2022-10-23T08:21:24.478Z,99635.00
2022-10-23T08:23:55.786Z,99640.00
2022-10-23T08:26:25.619Z,99640.00
2022-10-23T08:28:54.429Z,99627.00
2022-10-23T08:31:24.386Z,99622.00
2022-10-23T08:34:13.996Z,99624.00
2022-10-23T08:36:43.018Z,99624.00
2022-10-23T08:39:11.117Z,99612.00
2022-10-23T08:41:48.624Z,99602.00
2022-10-23T08:44:26.888Z,99601.00
2022-10-23T08:47:03.507Z,99589.00
2022-10-23T08:50:13.566Z,99568.00
2022-10-23T08:52:50.585Z,99595.00
2022-10-23T08:55:27.058Z,99603.00
2022-10-23T08:58:01.890Z,99596.00
2022-10-23T09:00:30.308Z,99588.00
2022-10-23T09:03:02.554Z,99589.00
2022-10-23T09:05:45.458Z,99592.00
2022-10-23T09:08:29.968Z,99591.00
2022-10-23T09:11:10.643Z,99590.00
2022-10-23T09:13:56.325Z,99594.00
2022-10-23T09:16:42.502Z,99594.00
2022-10-23T09:19:18.406Z,99593.00
2022-10-23T09:21:50.872Z,99603.00
2022-10-23T09:24:21.829Z,99595.00
2022-10-23T09:26:53.059Z,99602.00
2022-10-23T09:29:26.753Z,99594.00
2022-10-23T09:31:57.717Z,99601.00
2022-10-23T09:34:28.295Z,99605.00
2022-10-23T09:37:00.917Z,99603.00
2022-10-23T09:39:32.543Z,99606.00
2022-10-23T09:42:02.623Z,99594.00
2022-10-23T09:44:33.508Z,99587.00
2022-10-23T09:47:11.180Z,99588.00
2022-10-23T09:49:47.870Z,99589.00
2022-10-23T09:52:30.892Z,99594.00
2022-10-23T09:55:02.147Z,99595.00
2022-10-23T09:57:36.903Z,99598.00
2022-10-23T10:00:18.214Z,99593.00
2022-10-23T10:02:58.346Z,99602.00
2022-10-23T10:05:43.875Z,99608.00
2022-10-23T10:08:30.704Z,99606.00
2022-10-23T10:11:04.129Z,99596.00
2022-10-23T10:13:57.086Z,99593.00
2022-10-23T10:19:25.272Z,99590.00
2022-10-23T10:22:04.843Z,99586.00
2022-10-23T10:24:46.287Z,99583.00
2022-10-23T10:27:31.342Z,99578.00
2022-10-23T10:30:12.898Z,99566.00
2022-10-23T10:32:48.330Z,99560.00
2022-10-23T10:35:38.357Z,99555.00
2022-10-23T10:38:46.238Z,99556.00
2022-10-23T10:41:42.527Z,99540.00
2022-10-23T10:44:28.972Z,99539.00
2022-10-23T10:47:00.627Z,99536.00
2022-10-23T10:49:41.335Z,99534.00
2022-10-23T10:52:38.910Z,99517.00
2022-10-23T10:55:20.092Z,99519.00
2022-10-23T10:57:59.936Z,99514.00
2022-10-23T11:00:34.335Z,99519.00
2022-10-23T11:03:10.673Z,99518.00
2022-10-23T11:05:45.337Z,99524.00
2022-10-23T11:08:20.596Z,99521.00
2022-10-23T11:10:55.205Z,99518.00
2022-10-23T11:13:29.999Z,99504.00
2022-10-23T11:16:04.234Z,99510.00
2022-10-23T11:18:34.672Z,99503.00
2022-10-23T11:21:21.602Z,99495.00
2022-10-23T11:24:45.395Z,99481.00
2022-10-23T11:28:14.272Z,99479.00
2022-10-23T11:31:11.579Z,99480.00
2022-10-23T11:34:31.071Z,99487.00
2022-10-23T11:37:01.841Z,99482.00
2022-10-23T11:39:32.411Z,99481.00
2022-10-23T11:42:16.710Z,99488.00
2022-10-23T11:44:47.080Z,99477.00
2022-10-23T11:47:39.708Z,99485.00
2022-10-23T11:50:25.912Z,99458.00
2022-10-23T11:53:15.742Z,99476.00
2022-10-23T11:56:04.103Z,99472.00
2022-10-23T11:58:45.074Z,99470.00
2022-10-23T12:01:34.900Z,99463.00
2022-10-23T12:04:22.107Z,99453.00
2022-10-23T12:06:55.333Z,99445.00
2022-10-23T12:09:32.651Z,99443.00
2022-10-23T12:12:16.843Z,99438.00
2022-10-23T12:14:48.166Z,99432.00
2022-10-23T12:17:37.829Z,99428.00
2022-10-23T12:20:39.143Z,99429.00
2022-10-23T12:24:09.989Z,99424.00
2022-10-23T12:27:01.162Z,99421.00
2022-10-23T12:30:03.421Z,99421.00
2022-10-23T12:32:54.319Z,99422.00
2022-10-23T12:35:59.204Z,99406.00
2022-10-23T12:38:33.932Z,99390.00
2022-10-23T12:41:15.318Z,99404.00
2022-10-23T12:43:52.619Z,99398.00
2022-10-23T12:46:34.071Z,99406.00
2022-10-23T12:49:13.574Z,99403.00
2022-10-23T12:51:42.970Z,99400.00
2022-10-23T12:54:20.026Z,99392.00
2022-10-23T12:56:49.392Z,99393.00
2022-10-23T12:59:21.504Z,99397.00
2022-10-23T13:01:52.786Z,99388.00
2022-10-23T13:04:30.680Z,99387.00
2022-10-23T13:07:04.117Z,99374.00
2022-10-23T13:09:43.103Z,99374.00
2022-10-23T13:12:24.473Z,99376.00
2022-10-23T13:14:59.952Z,99367.00
2022-10-23T13:17:41.864Z,99328.00
2022-10-23T13:20:20.248Z,99358.00
2022-10-23T13:23:00.419Z,99363.00
2022-10-23T13:25:32.440Z,99358.00
2022-10-23T13:28:16.125Z,99357.00
2022-10-23T13:30:46.386Z,99356.00
2022-10-23T13:33:24.540Z,99364.00
2022-10-23T13:35:58.987Z,99358.00
2022-10-23T13:38:34.661Z,99362.00
2022-10-23T13:41:05.923Z,99365.00
2022-10-23T13:43:35.228Z,99360.00
2022-10-23T13:46:03.826Z,99355.00
2022-10-23T13:48:33.430Z,99352.00
2022-10-23T13:51:13.062Z,99359.00
2022-10-23T13:53:42.499Z,99349.00
2022-10-23T13:56:14.709Z,99353.00
2022-10-23T13:58:43.318Z,99352.00
2022-10-23T14:01:22.211Z,99342.00
2022-10-23T14:03:50.598Z,99335.00
2022-10-23T14:06:18.839Z,99333.00
2022-10-23T14:08:48.568Z,99326.00
2022-10-23T14:11:19.615Z,99325.00
2022-10-23T14:13:49.844Z,99324.00
2022-10-23T14:16:21.475Z,99317.00
2022-10-23T14:18:50.029Z,99318.00
2022-10-23T14:21:21.385Z,99320.00
2022-10-23T14:23:52.817Z,99288.00
2022-10-23T14:26:24.541Z,99309.00
2022-10-23T14:29:00.688Z,99310.00
2022-10-23T14:31:32.959Z,99312.00
2022-10-23T14:34:01.764Z,99304.00
2022-10-23T14:36:38.734Z,99300.00
2022-10-23T14:39:20.216Z,99308.00
2022-10-23T14:41:48.887Z,99305.00
2022-10-23T14:44:17.184Z,99289.00
2022-10-23T14:46:45.370Z,99281.00
2022-10-23T14:49:13.423Z,99282.00
2022-10-23T14:51:41.510Z,99262.00
2022-10-23T14:54:10.621Z,99251.00
2022-10-23T14:56:41.291Z,99260.00
2022-10-23T14:59:10.808Z,99255.00
2022-10-23T15:01:45.201Z,99258.00
2022-10-23T15:04:16.333Z,99268.00
2022-10-23T15:06:46.491Z,99266.00
2022-10-23T15:09:15.666Z,99266.00
2022-10-23T15:11:45.630Z,99259.00
2022-10-23T15:14:14.464Z,99251.00
2022-10-23T15:16:43.036Z,99254.00
2022-10-23T15:19:17.098Z,99247.00
2022-10-23T15:21:47.358Z,99270.00
2022-10-23T15:24:15.545Z,99270.00
2022-10-23T15:26:45.183Z,99266.00
2022-10-23T15:29:14.959Z,99268.00
2022-10-23T15:31:53.587Z,99269.00
2022-10-23T15:34:25.269Z,99265.00
2022-10-23T15:36:55.648Z,99266.00
2022-10-23T15:39:27.043Z,99261.00
2022-10-23T15:41:58.365Z,99261.00
2022-10-23T15:44:29.552Z,99266.00
2022-10-23T15:46:58.887Z,99266.00
2022-10-23T15:49:29.560Z,99272.00
2022-10-23T15:51:58.182Z,99255.00
2022-10-23T15:54:29.255Z,99253.00
2022-10-23T15:57:03.019Z,99247.00
2022-10-23T15:59:33.035Z,99249.00
2022-10-23T16:02:01.366Z,99250.00
2022-10-23T16:04:30.081Z,99247.00
2022-10-23T16:06:58.383Z,99252.00
2022-10-23T16:09:27.067Z,99248.00
2022-10-23T16:11:55.335Z,99241.00
2022-10-23T16:14:24.750Z,99226.00
2022-10-23T16:16:52.946Z,99226.00
2022-10-23T16:19:21.010Z,99226.00
2022-10-23T16:21:49.101Z,99224.00
2022-10-23T16:24:17.260Z,99229.00
2022-10-23T16:26:50.197Z,99239.00
2022-10-23T16:29:18.351Z,99228.00
2022-10-23T16:31:48.312Z,99229.00
2022-10-23T16:34:17.451Z,99219.00
2022-10-23T16:36:46.070Z,99216.00
2022-10-23T16:39:25.760Z,99225.00
2022-10-23T16:42:12.594Z,99221.00
2022-10-23T16:45:11.324Z,99205.00
2022-10-23T16:47:40.929Z,99198.00
2022-10-23T16:50:09.679Z,99186.00
2022-10-23T16:52:38.804Z,99186.00
2022-10-23T16:55:08.142Z,99188.00
2022-10-23T16:57:36.890Z,99190.00
2022-10-23T17:00:07.560Z,99182.00
2022-10-23T17:02:35.695Z,99179.00
2022-10-23T17:05:05.992Z,99175.00
2022-10-23T17:07:34.442Z,99179.00
2022-10-23T17:10:02.460Z,99169.00
2022-10-23T17:12:30.503Z,99167.00
2022-10-23T17:14:58.513Z,99174.00
2022-10-23T17:17:26.557Z,99162.00
2022-10-23T17:19:54.576Z,99167.00
2022-10-23T17:22:23.957Z,99155.00
2022-10-23T17:24:53.205Z,99149.00
2022-10-23T17:27:22.393Z,99142.00
2022-10-23T17:29:50.432Z,99139.00
2022-10-23T17:32:18.765Z,99131.00
2022-10-23T17:34:46.885Z,99131.00
2022-10-23T17:37:14.925Z,99136.00
2022-10-23T17:39:44.337Z,99137.00
2022-10-23T17:42:12.391Z,99131.00
2022-10-23T17:44:40.373Z,99133.00
2022-10-23T17:47:08.435Z,99129.00
2022-10-23T17:49:36.488Z,99138.00
2022-10-23T17:55:00.109Z,99136.00
2022-10-23T17:57:28.584Z,99138.00
2022-10-23T17:59:56.618Z,99130.00
2022-10-23T18:02:25.007Z,99133.00
2022-10-23T18:04:53.658Z,99122.00
2022-10-23T18:07:21.686Z,99118.00
2022-10-23T18:09:49.768Z,99112.00
2022-10-23T18:12:19.477Z,99125.00
2022-10-23T18:14:47.555Z,99122.00
2022-10-23T18:17:15.622Z,99123.00
2022-10-23T18:19:43.653Z,99118.00
2022-10-23T18:22:11.809Z,99117.00
2022-10-23T18:24:39.899Z,99105.00
2022-10-23T18:27:08.302Z,99102.00
2022-10-23T18:29:39.430Z,99098.00
2022-10-23T18:32:07.470Z,99092.00
2022-10-23T18:34:35.662Z,99079.00
2022-10-23T18:37:03.803Z,99075.00
2022-10-23T18:39:31.962Z,99075.00
2022-10-23T18:42:00.081Z,99072.00
2022-10-23T18:44:29.327Z,99074.00
2022-10-23T18:47:00.533Z,99073.00
2022-10-23T18:49:29.066Z,99076.00
2022-10-23T18:51:58.279Z,99080.00
2022-10-23T18:54:26.349Z,99100.00
2022-10-23T18:56:54.460Z,99094.00
2022-10-23T18:59:24.833Z,99092.00
2022-10-23T19:01:53.509Z,99077.00
2022-10-23T19:04:23.190Z,99081.00
2022-10-23T19:06:52.235Z,99068.00
2022-10-23T19:09:21.630Z,99052.00
2022-10-23T19:11:50.247Z,99065.00
2022-10-23T19:14:18.966Z,99032.00
2022-10-23T19:16:59.262Z,99055.00
2022-10-23T19:19:33.198Z,99048.00
2022-10-23T19:22:03.727Z,99063.00
2022-10-23T19:24:39.234Z,99062.00
2022-10-23T19:27:08.848Z,99068.00
2022-10-23T19:29:42.078Z,99065.00
2022-10-23T19:32:11.363Z,99056.00
2022-10-23T19:34:41.173Z,99062.00
2022-10-23T19:37:10.668Z,99047.00
2022-10-23T19:39:39.511Z,99038.00
2022-10-23T19:42:08.829Z,99025.00
2022-10-23T19:44:42.794Z,99022.00
2022-10-23T19:47:12.619Z,99015.00
2022-10-23T19:49:43.417Z,98983.00
2022-10-23T19:52:15.870Z,99000.00
2022-10-23T19:54:47.718Z,99001.00
2022-10-23T19:57:19.208Z,99004.00
2022-10-23T19:59:51.522Z,99001.00
2022-10-23T20:02:24.249Z,98990.00
2022-10-23T20:04:54.472Z,98975.00
2022-10-23T20:07:23.971Z,98976.00
2022-10-23T20:09:52.143Z,98996.00
2022-10-23T20:12:20.356Z,98988.00
2022-10-23T20:14:48.510Z,98968.00
2022-10-23T20:17:16.655Z,98997.00
2022-10-23T20:19:45.369Z,98984.00
2022-10-23T20:22:16.198Z,98977.00
2022-10-23T20:24:45.395Z,98986.00
2022-10-23T20:27:15.090Z,98988.00
2022-10-23T20:29:44.816Z,98998.00
2022-10-23T20:32:15.803Z,98998.00
2022-10-23T20:34:45.137Z,99002.00
2022-10-23T20:37:18.924Z,99009.00
2022-10-23T20:39:48.838Z,99022.00
2022-10-23T20:42:17.878Z,99016.00
2022-10-23T20:44:45.860Z,99023.00
2022-10-23T20:47:14.725Z,99027.00
2022-10-23T20:49:43.630Z,99042.00
2022-10-23T20:52:12.708Z,99047.00
2022-10-23T20:54:42.375Z,99062.00
2022-10-23T20:57:10.436Z,99073.00
2022-10-23T20:59:38.463Z,99091.00
2022-10-23T21:02:06.821Z,99080.00
2022-10-23T21:04:35.021Z,99095.00
2022-10-23T21:07:11.411Z,99115.00
2022-10-23T21:09:40.391Z,99125.00
2022-10-23T21:12:10.607Z,99096.00
2022-10-23T21:14:40.221Z,99137.00
2022-10-23T21:17:10.611Z,99154.00
2022-10-23T21:19:40.267Z,99150.00
2022-10-23T21:22:08.327Z,99173.00
2022-10-23T21:24:36.426Z,99175.00
2022-10-23T21:27:04.599Z,99183.00
2022-10-23T21:29:34.516Z,99188.00
2022-10-23T21:32:02.662Z,99185.00
2022-10-23T21:34:32.430Z,99176.00
2022-10-23T21:37:17.334Z,99183.00
2022-10-23T21:39:47.116Z,99187.00
2022-10-23T21:42:16.142Z,99185.00
2022-10-23T21:44:45.854Z,99198.00
2022-10-23T21:47:13.889Z,99194.00
2022-10-23T21:49:41.886Z,99204.00
2022-10-23T21:52:09.846Z,99217.00
2022-10-23T21:54:38.033Z,99201.00
2022-10-23T21:57:06.143Z,99195.00
2022-10-23T21:59:35.955Z,99194.00
2022-10-23T22:02:06.139Z,99181.00
2022-10-23T22:04:34.325Z,99177.00
2022-10-23T22:07:03.654Z,99177.00
2022-10-23T22:09:33.123Z,99166.00
2022-10-23T22:12:01.973Z,99181.00
2022-10-23T22:14:30.107Z,99171.00
2022-10-23T22:16:58.160Z,99171.00
2022-10-23T22:19:27.550Z,99170.00
2022-10-23T22:21:55.960Z,99156.00
2022-10-23T22:24:24.522Z,99148.00
2022-10-23T22:26:55.168Z,99146.00
2022-10-23T22:29:26.269Z,99147.00
2022-10-23T22:31:54.647Z,99154.00
2022-10-23T22:34:34.929Z,99157.00
2022-10-23T22:37:14.614Z,99138.00
2022-10-23T22:39:42.878Z,99142.00
2022-10-23T22:42:10.945Z,99150.00
2022-10-23T22:44:38.948Z,99163.00
2022-10-23T22:47:07.233Z,99161.00
2022-10-23T22:49:35.362Z,99141.00
2022-10-23T22:52:03.383Z,99122.00
2022-10-23T22:54:32.883Z,99127.00
2022-10-23T22:57:00.900Z,99133.00
2022-10-23T22:59:28.987Z,99130.00
2022-10-23T23:01:57.123Z,99137.00
2022-10-23T23:04:37.275Z,99149.00
2022-10-23T23:07:07.039Z,99148.00
2022-10-23T23:09:39.555Z,99141.00
2022-10-23T23:12:09.747Z,99136.00
2022-10-23T23:14:38.578Z,99145.00
2022-10-23T23:17:08.448Z,99142.00
2022-10-23T23:19:37.306Z,99146.00
2022-10-23T23:22:05.729Z,99152.00
2022-10-23T23:24:33.929Z,99153.00
2022-10-23T23:27:03.348Z,99158.00
2022-10-23T23:29:31.357Z,99170.00
2022-10-23T23:31:59.541Z,99159.00
2022-10-23T23:34:27.745Z,99161.00
2022-10-23T23:36:55.761Z,99161.00
2022-10-23T23:39:25.944Z,99161.00
2022-10-23T23:41:53.961Z,99157.00
2022-10-23T23:44:23.329Z,99164.00
2022-10-23T23:46:51.335Z,99159.00
2022-10-23T23:49:19.371Z,99161.00
2022-10-23T23:51:47.394Z,99161.00
2022-10-23T23:54:15.557Z,99156.00
2022-10-23T23:56:43.645Z,99157.00
2022-10-23T23:59:11.626Z,99157.00
